Time;durP1;ratioP1;P1;durP2;ratioP2;P2;SDS_P1;SDS_P2;PMS_P1;PMS_P2;Temp;Humidity;BMP_temperature;BMP_pressure;BME280_temperature;BME280_humidity;BME280_pressure;Samples;Min_cycle;Max_cycle;Signal;HPM_P1;HPM_P2
2023/03/17 00:01:54;;;;;;;4.60;2.70;;;;;;;8.70;100.00;100809.13;5047352;28;20060;-63
2023/03/17 00:04:21;;;;;;;4.93;2.78;;;;;;;8.69;100.00;100807.38;5026340;28;20061;-63
2023/03/17 00:06:47;;;;;;;4.63;2.70;;;;;;;8.72;100.00;100804.69;5022610;28;20103;-63
2023/03/17 00:09:13;;;;;;;4.15;2.72;;;;;;;8.72;100.00;100786.28;5029914;28;20035;-63
2023/03/17 00:11:39;;;;;;;4.07;2.67;;;;;;;8.73;100.00;100785.38;5046445;28;20024;-64
2023/03/17 00:14:04;;;;;;;2.75;2.53;;;;;;;8.72;100.00;100775.78;5044645;28;20175;-64
2023/03/17 00:16:35;;;;;;;4.65;3.00;;;;;;;8.74;100.00;100776.59;5029100;28;20021;-63
2023/03/17 00:19:01;;;;;;;5.15;2.90;;;;;;;8.70;100.00;100780.22;5030013;28;20074;-61
2023/03/17 00:21:29;;;;;;;4.70;3.00;;;;;;;8.65;100.00;100775.09;5027771;28;20024;-62
2023/03/17 00:23:55;;;;;;;5.68;3.40;;;;;;;8.63;100.00;100776.88;5047541;28;20017;-65
2023/03/17 00:26:21;;;;;;;3.92;2.70;;;;;;;8.65;100.00;100774.22;5046797;28;20025;-63
2023/03/17 00:28:47;;;;;;;3.63;2.63;;;;;;;8.66;100.00;100775.94;5047946;28;20021;-63
2023/03/17 00:31:23;;;;;;;4.95;3.35;;;;;;;8.63;100.00;100769.00;5046708;28;20104;-63
2023/03/17 00:33:51;;;;;;;3.95;2.90;;;;;;;8.65;100.00;100766.34;5047376;28;20086;-63
2023/03/17 00:36:20;;;;;;;5.63;3.13;;;;;;;8.58;100.00;100768.28;5012969;28;20029;-63
2023/03/17 00:38:45;;;;;;;4.95;2.60;;;;;;;8.58;100.00;100777.00;5028697;28;20032;-63
2023/03/17 00:41:11;;;;;;;5.43;2.75;;;;;;;8.51;100.00;100775.41;5046986;28;20029;-63
2023/03/17 00:43:37;;;;;;;6.38;2.92;;;;;;;8.57;100.00;100779.69;5046757;28;20029;-62
2023/03/17 00:46:18;;;;;;;2.85;2.53;;;;;;;8.54;100.00;100772.75;5046286;28;20082;-62
2023/03/17 00:48:44;;;;;;;7.45;3.30;;;;;;;8.59;100.00;100757.75;5028493;28;20081;-63
2023/03/17 00:51:09;;;;;;;2.92;2.60;;;;;;;8.58;100.00;100740.25;5012310;28;20017;-62
2023/03/17 00:53:35;;;;;;;4.07;2.85;;;;;;;8.63;100.00;100749.75;5029283;28;20025;-64
2023/03/17 00:56:00;;;;;;;4.40;2.78;;;;;;;8.63;100.00;100760.25;5046774;28;20090;-62
2023/03/17 00:58:28;;;;;;;3.53;2.55;;;;;;;8.63;100.00;100757.63;5046784;28;20052;-62
2023/03/17 01:00:54;;;;;;;5.07;2.90;;;;;;;8.65;100.00;100756.72;5028777;28;20017;-62
2023/03/17 01:03:20;;;;;;;6.78;2.70;;;;;;;8.67;100.00;100765.38;5046737;28;20025;-63
2023/03/17 01:05:46;;;;;;;3.38;2.25;;;;;;;8.74;100.00;100776.59;5047229;28;20096;-64
2023/03/17 01:08:12;;;;;;;5.03;2.72;;;;;;;8.76;100.00;100764.28;5046640;28;20025;-63
2023/03/17 01:10:38;;;;;;;4.50;3.10;;;;;;;8.74;100.00;100767.84;5047438;28;20051;-62
2023/03/17 01:13:04;;;;;;;5.55;2.85;;;;;;;8.67;100.00;100765.38;5047095;28;20029;-62
2023/03/17 01:15:30;;;;;;;5.60;2.80;;;;;;;8.63;100.00;100766.38;5028261;28;20170;-62
2023/03/17 01:17:57;;;;;;;4.07;2.55;;;;;;;8.61;100.00;100769.97;5046490;28;20410;-62
2023/03/17 01:20:28;;;;;;;4.28;2.80;;;;;;;8.56;100.00;100763.06;5038907;28;20048;-62
2023/03/17 01:22:54;;;;;;;5.07;2.65;;;;;;;8.59;100.00;100764.75;5028974;28;20480;-64
2023/03/17 01:25:20;;;;;;;3.60;2.53;;;;;;;8.67;100.00;100749.63;5029470;28;20029;-63
2023/03/17 01:27:46;;;;;;;5.65;2.60;;;;;;;8.74;100.00;100745.09;5032265;28;20155;-62
2023/03/17 01:30:37;;;;;;;6.40;2.63;;;;;;;8.71;100.00;100739.91;5032108;28;20025;-63
2023/03/17 01:33:03;;;;;;;4.47;3.10;;;;;;;8.72;100.00;100749.50;5050389;28;20053;-62
2023/03/17 01:35:29;;;;;;;3.70;2.72;;;;;;;8.69;100.00;100744.34;5050518;28;20216;-62
2023/03/17 01:37:56;;;;;;;4.95;2.95;;;;;;;8.70;100.00;100740.81;5033021;28;20567;-62
2023/03/17 01:40:30;;;;;;;7.35;2.67;;;;;;;8.69;100.00;100736.44;5030092;28;20030;-62
2023/03/17 01:43:12;;;;;;;5.00;2.70;;;;;;;8.64;100.00;100738.38;5029429;28;20060;-62
2023/03/17 01:46:14;;;;;;;4.88;2.72;;;;;;;8.73;100.00;100730.19;5011473;28;20421;-64
2023/03/17 01:49:03;;;;;;;2.72;2.20;;;;;;;8.75;100.00;100731.03;5029009;28;20033;-64
2023/03/17 01:51:43;;;;;;;3.42;2.78;;;;;;;8.75;100.00;100717.91;5028754;28;20091;-64
2023/03/17 01:54:14;;;;;;;4.47;2.67;;;;;;;8.74;100.00;100717.94;5012176;28;20060;-63
2023/03/17 01:56:41;;;;;;;4.97;2.50;;;;;;;8.77;100.00;100718.72;5024954;28;20033;-63
2023/03/17 01:59:07;;;;;;;5.00;3.20;;;;;;;8.81;100.00;100717.72;5031541;28;20033;-63
2023/03/17 02:01:37;;;;;;;4.32;2.70;;;;;;;8.83;100.00;100725.56;5031110;28;20032;-63
2023/03/17 02:04:03;;;;;;;5.30;3.15;;;;;;;8.83;100.00;100722.94;5049700;28;20025;-63
2023/03/17 02:06:29;;;;;;;5.72;3.00;;;;;;;8.82;100.00;100711.56;5117668;22;20053;-62
2023/03/17 02:08:55;;;;;;;3.30;2.42;;;;;;;8.82;100.00;100711.56;5068060;28;20032;-62
2023/03/17 02:11:21;;;;;;;5.18;2.72;;;;;;;8.74;100.00;100716.19;5051835;28;20037;-63
2023/03/17 02:13:47;;;;;;;5.05;2.83;;;;;;;8.82;100.00;100693.16;5067471;28;20021;-63
2023/03/17 02:16:15;;;;;;;3.70;2.53;;;;;;;8.82;100.00;100706.31;5051238;28;20028;-63
2023/03/17 02:18:41;;;;;;;3.60;2.70;;;;;;;8.77;100.00;100707.34;5051844;28;20365;-63
2023/03/17 02:21:31;;;;;;;3.15;2.50;;;;;;;8.82;100.00;100708.94;5068329;28;20477;-63
2023/03/17 02:23:59;;;;;;;3.83;2.67;;;;;;;8.83;100.00;100705.41;5069143;28;20029;-62
2023/03/17 02:26:24;;;;;;;7.57;3.30;;;;;;;8.86;100.00;100701.84;5050017;28;20024;-63
2023/03/17 02:28:50;;;;;;;3.97;2.50;;;;;;;8.88;100.00;100700.00;5050637;28;20115;-63
2023/03/17 02:31:16;;;;;;;3.33;2.38;;;;;;;8.87;100.00;100707.94;5050266;28;20094;-62
2023/03/17 02:33:41;;;;;;;3.47;2.50;;;;;;;8.90;100.00;100707.84;5050716;28;20503;-63
2023/03/17 02:36:08;;;;;;;4.10;2.63;;;;;;;8.90;100.00;100707.84;5068571;28;20029;-65
2023/03/17 02:38:34;;;;;;;4.18;2.85;;;;;;;8.90;100.00;100702.59;5068254;28;20024;-66
2023/03/17 02:40:59;;;;;;;5.40;2.90;;;;;;;8.93;100.00;100708.63;5051177;28;20438;-65
2023/03/17 02:43:25;;;;;;;3.75;2.63;;;;;;;8.88;100.00;100697.38;5067619;28;20111;-63
2023/03/17 02:45:50;;;;;;;5.03;2.30;;;;;;;8.86;100.00;100699.22;5048411;28;20809;-63
2023/03/17 02:48:16;;;;;;;4.97;2.78;;;;;;;8.87;100.00;100700.03;5048125;28;20021;-63
2023/03/17 02:50:41;;;;;;;4.88;2.75;;;;;;;8.89;100.00;100707.00;5031046;28;20100;-63
2023/03/17 02:53:07;;;;;;;5.40;2.60;;;;;;;8.90;100.00;100708.72;5048455;28;20578;-62
2023/03/17 02:55:32;;;;;;;2.75;2.53;;;;;;;8.79;100.00;100706.38;5048343;28;20035;-63
2023/03/17 02:57:57;;;;;;;2.85;2.40;;;;;;;8.84;100.00;100715.03;5048773;28;20759;-63
2023/03/17 03:00:23;;;;;;;3.53;2.40;;;;;;;8.85;100.00;100715.84;5047594;28;20033;-61
2023/03/17 03:02:48;;;;;;;3.63;2.53;;;;;;;8.89;100.00;100716.66;5048797;28;20032;-62
2023/03/17 03:05:13;;;;;;;4.28;2.67;;;;;;;8.90;100.00;100705.22;5062430;28;20048;-61
2023/03/17 03:07:39;;;;;;;3.85;2.38;;;;;;;8.80;100.00;100710.75;5068659;28;20060;-64
2023/03/17 03:10:04;;;;;;;4.05;2.53;;;;;;;8.82;100.00;100692.31;5067300;28;20028;-62
2023/03/17 03:12:30;;;;;;;5.15;3.10;;;;;;;8.84;100.00;100694.00;5049431;28;20078;-62
2023/03/17 03:14:55;;;;;;;6.45;2.47;;;;;;;8.85;100.00;100702.72;5067595;28;20134;-63
2023/03/17 03:17:20;;;;;;;4.15;2.60;;;;;;;8.82;100.00;100695.78;5048753;28;20040;-62
2023/03/17 03:19:47;;;;;;;3.72;2.53;;;;;;;8.82;100.00;100694.97;5068052;28;20024;-62
2023/03/17 03:22:14;;;;;;;2.90;2.35;;;;;;;8.76;100.00;100709.09;5065353;28;20079;-62
2023/03/17 03:24:40;;;;;;;4.82;2.83;;;;;;;8.79;100.00;100722.16;5067911;28;20095;-62
2023/03/17 03:27:06;;;;;;;3.88;2.47;;;;;;;8.78;100.00;100720.44;5049579;28;20016;-62
2023/03/17 03:29:31;;;;;;;5.60;2.75;;;;;;;8.79;100.00;100730.03;5067137;28;20494;-62
2023/03/17 03:31:56;;;;;;;3.63;2.65;;;;;;;8.78;100.00;100728.31;5068203;28;20025;-63
2023/03/17 03:34:22;;;;;;;4.82;2.70;;;;;;;8.87;100.00;100706.19;5066331;28;20029;-62
2023/03/17 03:36:47;;;;;;;8.40;3.00;;;;;;;8.84;100.00;100716.78;5067219;28;20461;-63
2023/03/17 03:39:12;;;;;;;3.33;2.55;;;;;;;8.84;100.00;100719.41;5066685;28;20085;-62
2023/03/17 03:41:38;;;;;;;4.70;2.30;;;;;;;8.88;100.00;100722.81;5067835;28;20024;-62
2023/03/17 03:44:03;;;;;;;6.85;2.88;;;;;;;8.86;100.00;100722.84;5064956;28;20036;-62
2023/03/17 03:46:28;;;;;;;4.18;2.58;;;;;;;8.82;100.00;100732.56;5067506;28;20036;-62
2023/03/17 03:48:54;;;;;;;4.15;2.53;;;;;;;8.81;100.00;100728.25;5048405;28;20673;-62
2023/03/17 03:51:19;;;;;;;4.10;2.28;;;;;;;8.83;100.00;100738.72;5032498;28;20543;-62
2023/03/17 03:53:47;;;;;;;3.97;2.75;;;;;;;8.78;100.00;100737.97;5049287;28;20024;-63
2023/03/17 03:56:12;;;;;;;3.13;2.50;;;;;;;8.80;100.00;100739.66;5064728;28;20032;-62
2023/03/17 03:58:37;;;;;;;3.20;2.50;;;;;;;8.77;100.00;100745.00;5067532;28;20047;-62
2023/03/17 04:01:05;;;;;;;5.50;3.00;;;;;;;8.76;100.00;100748.50;5066645;28;20025;-61
2023/03/17 04:03:30;;;;;;;5.22;2.47;;;;;;;8.71;100.00;100746.03;5065038;28;20024;-62
2023/03/17 04:05:55;;;;;;;4.10;2.75;;;;;;;8.70;100.00;100740.81;5067081;28;20075;-62
2023/03/17 04:08:21;;;;;;;5.50;2.72;;;;;;;8.65;100.00;100732.19;5065446;28;20082;-63
2023/03/17 04:10:46;;;;;;;5.82;2.92;;;;;;;8.62;100.00;100732.28;5064557;28;20021;-64
2023/03/17 04:13:13;;;;;;;3.72;2.50;;;;;;;8.65;100.00;100735.69;5067021;28;20508;-63
2023/03/17 04:15:38;;;;;;;5.82;2.83;;;;;;;8.70;100.00;100733.78;5064525;28;20033;-64
2023/03/17 04:18:04;;;;;;;3.60;2.38;;;;;;;8.75;100.00;100735.41;5066619;28;20051;-63
2023/03/17 04:20:29;;;;;;;6.68;2.53;;;;;;;8.74;100.00;100736.31;5065614;28;20415;-62
2023/03/17 04:22:55;;;;;;;4.13;3.08;;;;;;;8.73;100.00;100732.81;5065623;28;20107;-61
2023/03/17 04:25:20;;;;;;;3.55;2.50;;;;;;;8.80;100.00;100729.16;5066593;28;20032;-63
2023/03/17 04:27:45;;;;;;;2.50;2.17;;;;;;;8.78;100.00;100727.44;5067101;28;20754;-63
2023/03/17 04:30:15;;;;;;;4.00;3.20;;;;;;;8.84;100.00;100736.03;5064833;28;20033;-62
2023/03/17 04:32:41;;;;;;;3.13;2.70;;;;;;;8.87;100.00;100739.47;5067579;28;20035;-62
2023/03/17 04:35:08;;;;;;;5.30;2.35;;;;;;;8.79;100.00;100727.41;5059854;28;20045;-63
2023/03/17 04:37:33;;;;;;;2.70;2.38;;;;;;;8.89;100.00;100725.41;5047346;28;20063;-62
2023/03/17 04:39:58;;;;;;;3.63;2.33;;;;;;;8.95;100.00;100735.75;5046686;28;20052;-62
2023/03/17 04:42:24;;;;;;;3.33;2.45;;;;;;;8.97;100.00;100730.41;5053795;28;20047;-63
2023/03/17 04:44:49;;;;;;;4.20;2.33;;;;;;;9.02;100.00;100730.28;5066067;28;20039;-64
2023/03/17 04:47:15;;;;;;;3.97;2.42;;;;;;;8.96;100.00;100739.22;5047799;28;20016;-63
2023/03/17 04:49:40;;;;;;;3.47;2.40;;;;;;;9.01;100.00;100737.31;5064931;28;20070;-62
2023/03/17 04:52:06;;;;;;;5.63;2.72;;;;;;;9.01;100.00;100737.31;5067470;28;20435;-62
2023/03/17 04:54:31;;;;;;;3.20;2.42;;;;;;;8.99;100.00;100741.75;5066034;28;20926;-62
2023/03/17 04:56:56;;;;;;;4.70;2.83;;;;;;;9.00;100.00;100735.56;5054337;28;20483;-62
2023/03/17 04:59:22;;;;;;;4.13;2.65;;;;;;;9.00;100.00;100726.84;5046983;28;20758;-62
2023/03/17 05:01:47;;;;;;;4.15;2.40;;;;;;;9.01;100.00;100737.31;5052876;28;20016;-62
2023/03/17 05:04:12;;;;;;;3.65;2.20;;;;;;;9.05;100.00;100725.81;5065694;28;20082;-62
2023/03/17 05:06:38;;;;;;;4.60;2.67;;;;;;;9.08;100.00;100712.56;5073698;28;20047;-62
2023/03/17 05:09:03;;;;;;;9.40;2.83;;;;;;;9.09;100.00;100703.78;5073490;28;20477;-62
2023/03/17 05:11:29;;;;;;;3.90;2.70;;;;;;;9.15;100.00;100720.28;5070927;28;20759;-63
2023/03/17 05:13:55;;;;;;;2.85;2.10;;;;;;;9.16;100.00;100714.13;5072417;28;20555;-64
2023/03/17 05:16:21;;;;;;;4.38;2.33;;;;;;;9.16;100.00;100682.56;5069323;28;20040;-63
2023/03/17 05:18:47;;;;;;;3.72;2.40;;;;;;;9.09;100.00;100664.34;5066910;28;20024;-62
2023/03/17 05:21:12;;;;;;;2.92;2.50;;;;;;;9.14;100.00;100650.19;5065638;28;20017;-64
2023/03/17 05:23:37;;;;;;;5.05;2.33;;;;;;;9.07;100.00;100665.31;5073499;28;20059;-62
2023/03/17 05:26:03;;;;;;;2.83;2.30;;;;;;;9.09;100.00;100684.50;5073030;28;20024;-63
2023/03/17 05:28:29;;;;;;;3.67;2.70;;;;;;;9.01;100.00;100682.13;5059294;28;20024;-63
2023/03/17 05:30:55;;;;;;;3.65;2.63;;;;;;;8.96;100.00;100691.91;5073072;28;20107;-63
2023/03/17 05:33:20;;;;;;;4.47;2.38;;;;;;;8.89;100.00;100693.00;5072406;28;20024;-63
2023/03/17 05:35:46;;;;;;;4.50;2.08;;;;;;;8.91;100.00;100706.97;5051962;28;20028;-61
2023/03/17 05:38:14;;;;;;;5.13;2.65;;;;;;;8.85;100.00;100716.72;5055783;28;20028;-62
2023/03/17 05:40:39;;;;;;;5.28;2.50;;;;;;;8.78;100.00;100715.19;5063401;28;20025;-63
2023/03/17 05:43:05;;;;;;;3.78;2.30;;;;;;;8.87;100.00;100705.31;5037783;28;20059;-62
2023/03/17 05:45:32;;;;;;;4.07;2.13;;;;;;;8.87;100.00;100703.53;5050940;28;20668;-63
2023/03/17 05:47:57;;;;;;;4.95;2.47;;;;;;;8.87;100.00;100702.69;5060638;28;20740;-62
2023/03/17 05:50:23;;;;;;;6.45;2.40;;;;;;;8.88;100.00;100720.19;5059573;28;20163;-62
2023/03/17 05:52:50;;;;;;;6.47;2.45;;;;;;;8.84;100.00;100714.16;5018931;28;20060;-61
2023/03/17 05:55:16;;;;;;;4.25;2.28;;;;;;;8.87;100.00;100716.69;5052005;28;20132;-62
2023/03/17 05:57:41;;;;;;;4.30;2.60;;;;;;;8.85;100.00;100713.22;5073060;28;20021;-63
2023/03/17 06:00:07;;;;;;;2.25;2.05;;;;;;;8.88;100.00;100715.78;5072840;28;20043;-63
2023/03/17 06:02:34;;;;;;;3.47;2.40;;;;;;;8.87;100.00;100705.31;5069252;28;20024;-62
2023/03/17 06:04:59;;;;;;;6.50;2.55;;;;;;;8.83;100.00;100689.66;5053095;28;20369;-62
2023/03/17 06:07:25;;;;;;;5.40;2.58;;;;;;;8.78;100.00;100688.91;5069963;28;20019;-62
2023/03/17 06:09:51;;;;;;;5.20;2.50;;;;;;;8.77;100.00;100708.22;5071640;28;20480;-62
2023/03/17 06:12:16;;;;;;;3.65;2.38;;;;;;;8.76;100.00;100690.72;5067391;28;20082;-62
2023/03/17 06:14:41;;;;;;;4.60;2.40;;;;;;;8.71;100.00;100690.00;5067212;28;20071;-63
2023/03/17 06:17:07;;;;;;;4.22;2.63;;;;;;;8.68;100.00;100698.84;5068961;28;20116;-62
2023/03/17 06:19:32;;;;;;;3.67;2.58;;;;;;;8.70;100.00;100704.03;5068077;28;20048;-64
2023/03/17 06:21:58;;;;;;;6.35;2.65;;;;;;;8.74;100.00;100710.94;5066916;28;20395;-61
2023/03/17 06:24:24;;;;;;;7.22;2.50;;;;;;;8.74;100.00;100707.44;5067052;28;20425;-64
2023/03/17 06:26:51;;;;;;;8.13;2.70;;;;;;;8.79;100.00;100706.38;5067117;28;20027;-63
2023/03/17 06:29:17;;;;;;;11.05;2.65;;;;;;;8.78;100.00;100720.44;5067204;28;20027;-62
2023/03/17 06:31:49;;;;;;;4.57;2.30;;;;;;;8.78;100.00;100725.69;5049832;28;20024;-63
2023/03/17 06:34:15;;;;;;;4.47;2.38;;;;;;;8.85;100.00;100731.63;5066235;28;20029;-63
2023/03/17 06:36:40;;;;;;;4.45;2.53;;;;;;;8.84;100.00;100722.03;5068116;28;20104;-64
2023/03/17 06:39:06;;;;;;;4.20;2.75;;;;;;;8.96;100.00;100721.69;5066461;28;20504;-61
2023/03/17 06:41:31;;;;;;;8.13;2.05;;;;;;;9.03;100.00;100711.00;5048133;28;20040;-63
2023/03/17 06:43:56;;;;;;;4.43;2.67;;;;;;;9.08;100.00;100707.31;5046945;28;20047;-62
2023/03/17 06:46:22;;;;;;;5.15;2.58;;;;;;;9.21;100.00;100706.94;5046833;28;20029;-63
2023/03/17 06:48:47;;;;;;;4.45;2.40;;;;;;;9.25;100.00;100708.59;5047828;28;20053;-63
2023/03/17 06:51:12;;;;;;;3.47;2.30;;;;;;;9.32;100.00;100714.50;5047025;28;20113;-64
2023/03/17 06:53:38;;;;;;;4.28;2.70;;;;;;;9.37;100.00;100720.50;5047673;28;20028;-62
2023/03/17 06:56:06;;;;;;;3.70;2.28;;;;;;;9.41;100.00;100715.97;5046881;28;20304;-62
2023/03/17 06:58:32;;;;;;;2.45;2.22;;;;;;;9.43;100.00;100704.53;5047054;28;20056;-62
2023/03/17 07:00:58;;;;;;;2.47;2.25;;;;;;;9.44;100.00;100714.13;5054524;28;20469;-61
2023/03/17 07:03:24;;;;;;;4.38;2.53;;;;;;;9.47;100.00;100715.81;5067722;28;20032;-62
2023/03/17 07:05:50;;;;;;;4.40;2.28;;;;;;;9.46;100.00;100727.25;5060607;28;20726;-62
2023/03/17 07:08:16;;;;;;;4.40;2.33;;;;;;;9.51;100.00;100730.56;5047879;28;20389;-62
2023/03/17 07:10:42;;;;;;;3.10;2.45;;;;;;;9.53;100.00;100733.16;5049104;28;20377;-64
2023/03/17 07:13:09;;;;;;;5.05;2.63;;;;;;;9.51;99.90;100743.72;5067264;28;20017;-64
2023/03/17 07:15:34;;;;;;;6.55;2.45;;;;;;;9.48;99.51;100736.78;5065631;28;20032;-63
2023/03/17 07:18:00;;;;;;;4.22;3.05;;;;;;;9.54;99.65;100740.16;5067608;28;20423;-63
2023/03/17 07:20:26;;;;;;;7.70;2.72;;;;;;;9.53;99.49;100712.97;5066465;28;20075;-65
2023/03/17 07:22:51;;;;;;;4.78;2.50;;;;;;;9.55;99.33;100712.94;5066036;28;20028;-63
2023/03/17 07:25:17;;;;;;;7.22;2.22;;;;;;;9.60;99.43;100714.50;5066678;28;20100;-62
2023/03/17 07:27:42;;;;;;;4.65;2.30;;;;;;;9.63;99.03;100716.16;5065863;28;20025;-63
2023/03/17 07:30:11;;;;;;;7.65;2.85;;;;;;;9.80;98.68;100715.63;5066267;28;20067;-63
2023/03/17 07:32:37;;;;;;;2.92;2.17;;;;;;;9.96;98.27;100710.72;5065856;28;20466;-64
2023/03/17 07:35:03;;;;;;;4.03;2.30;;;;;;;9.92;97.46;100713.50;5066936;28;20025;-64
2023/03/17 07:37:29;;;;;;;3.13;2.30;;;;;;;10.04;97.42;100702.56;5065606;28;20082;-64
2023/03/17 07:39:54;;;;;;;6.30;2.63;;;;;;;10.14;95.43;100712.78;5066851;28;20025;-64
2023/03/17 07:42:20;;;;;;;6.05;2.67;;;;;;;10.24;95.70;100709.78;5047489;28;20048;-63
2023/03/17 07:44:45;;;;;;;5.68;2.45;;;;;;;10.16;95.02;100714.47;5066192;28;20314;-62
2023/03/17 07:47:12;;;;;;;3.75;2.33;;;;;;;10.29;95.14;100721.94;5058432;28;20542;-62
2023/03/17 07:49:37;;;;;;;6.68;2.80;;;;;;;10.42;93.66;100739.00;5047478;28;20032;-62
2023/03/17 07:52:03;;;;;;;5.82;2.75;;;;;;;10.49;93.02;100734.44;5054334;28;20515;-63
2023/03/17 07:54:28;;;;;;;4.88;2.70;;;;;;;10.48;92.89;100727.44;5067580;28;20032;-60
2023/03/17 07:56:54;;;;;;;8.80;2.85;;;;;;;10.42;93.31;100735.53;5066481;28;20383;-64
2023/03/17 07:59:20;;;;;;;2.63;2.40;;;;;;;10.39;93.46;100735.63;5066900;28;20024;-62
2023/03/17 08:01:46;;;;;;;3.30;2.50;;;;;;;10.33;94.53;100732.28;5067289;28;20038;-62
2023/03/17 08:04:12;;;;;;;5.75;2.50;;;;;;;10.37;94.25;100725.16;5066650;28;20030;-61
2023/03/17 08:06:40;;;;;;;4.88;2.40;;;;;;;10.46;94.71;100729.28;5067412;28;20542;-61
2023/03/17 08:09:07;;;;;;;7.30;2.95;;;;;;;10.47;95.01;100723.94;5051157;28;20025;-64
2023/03/17 08:11:33;;;;;;;9.93;3.33;;;;;;;10.48;94.69;100730.09;5047633;28;20048;-63
2023/03/17 08:14:00;;;;;;;4.25;2.83;;;;;;;10.47;95.73;100729.22;5060234;28;20488;-61
2023/03/17 08:16:25;;;;;;;7.68;2.70;;;;;;;10.51;95.40;100734.38;5066184;28;20032;-61
2023/03/17 08:18:51;;;;;;;6.05;2.55;;;;;;;10.52;96.14;100736.97;5045968;28;20731;-63
2023/03/17 08:21:16;;;;;;;8.98;2.88;;;;;;;10.50;96.79;100730.88;5067053;28;20048;-62
2023/03/17 08:23:42;;;;;;;8.30;3.13;;;;;;;10.69;95.48;100730.22;5066212;28;20035;-62
2023/03/17 08:26:07;;;;;;;5.90;2.95;;;;;;;10.74;95.19;100737.06;5067081;28;20025;-63
2023/03/17 08:28:33;;;;;;;6.28;3.20;;;;;;;10.73;95.94;100735.34;5059452;28;20028;-62
2023/03/17 08:31:09;;;;;;;6.07;3.25;;;;;;;10.88;95.58;100735.69;5046563;28;20028;-63
2023/03/17 08:33:35;;;;;;;7.40;2.35;;;;;;;10.89;95.70;100726.00;5049144;28;20032;-61
2023/03/17 08:36:04;;;;;;;6.63;3.17;;;;;;;11.08;94.70;100723.53;5066605;28;20039;-63
2023/03/17 08:38:30;;;;;;;8.18;3.28;;;;;;;11.09;95.05;100723.50;5048748;28;20032;-63
2023/03/17 08:41:00;;;;;;;4.25;3.22;;;;;;;11.24;95.01;100716.75;5087419;28;20388;-62
2023/03/17 08:43:26;;;;;;;8.23;3.55;;;;;;;11.30;94.88;100710.38;5085535;28;20118;-65
2023/03/17 08:45:52;;;;;;;5.40;3.20;;;;;;;11.40;94.24;100707.38;5054460;28;20050;-62
2023/03/17 08:48:18;;;;;;;8.02;3.20;;;;;;;11.52;93.14;100709.53;5065685;28;20037;-64
2023/03/17 08:50:44;;;;;;;5.68;3.20;;;;;;;11.67;91.36;100701.91;5065902;28;20078;-62
2023/03/17 08:53:09;;;;;;;5.43;3.22;;;;;;;11.79;91.10;100708.47;5048460;28;20027;-63
2023/03/17 08:55:36;;;;;;;6.05;3.92;;;;;;;11.94;89.81;100720.16;5066333;28;20032;-64
2023/03/17 08:58:02;;;;;;;5.72;3.05;;;;;;;12.13;87.59;100731.72;5066640;28;20036;-63
2023/03/17 09:00:27;;;;;;;5.65;3.35;;;;;;;12.19;87.86;100735.88;5062430;28;20020;-61
2023/03/17 09:02:53;;;;;;;8.02;3.45;;;;;;;12.31;87.71;100736.28;5065854;28;20423;-61
2023/03/17 09:05:19;;;;;;;7.68;3.25;;;;;;;12.50;87.05;100726.63;5064219;28;20048;-61
2023/03/17 09:07:44;;;;;;;6.05;3.20;;;;;;;12.68;86.29;100733.81;5064813;28;20024;-62
2023/03/17 09:10:12;;;;;;;4.63;2.75;;;;;;;12.78;85.25;100732.47;5065093;28;20035;-62
2023/03/17 09:12:38;;;;;;;7.28;3.90;;;;;;;12.85;84.57;100744.50;5043103;28;20021;-62
2023/03/17 09:15:05;;;;;;;5.93;3.15;;;;;;;12.97;84.62;100739.56;5045544;28;20021;-62
2023/03/17 09:17:30;;;;;;;6.82;3.05;;;;;;;13.18;83.82;100743.00;5059599;28;20024;-62
2023/03/17 09:19:56;;;;;;;3.85;3.17;;;;;;;13.42;83.05;100744.59;5066662;28;20023;-60
2023/03/17 09:22:21;;;;;;;7.38;3.72;;;;;;;13.62;79.95;100744.53;5062489;28;20111;-69
2023/03/17 09:24:48;;;;;;;6.70;3.60;;;;;;;13.79;76.63;100755.22;5066771;28;20020;-67
2023/03/17 09:27:13;;;;;;;9.73;3.72;;;;;;;13.83;75.40;100765.59;5065014;28;20067;-66
2023/03/17 09:29:41;;;;;;;7.50;3.85;;;;;;;13.89;74.80;100762.66;5028228;28;20107;-68
2023/03/17 09:32:07;;;;;;;8.65;3.65;;;;;;;13.99;75.18;100773.63;5029528;28;20035;-68
2023/03/17 09:34:34;;;;;;;4.78;3.60;;;;;;;13.92;75.38;100776.66;5060629;28;20047;-67
2023/03/17 09:37:00;;;;;;;8.88;3.65;;;;;;;13.98;75.06;100769.28;5065080;28;20032;-69
2023/03/17 09:39:26;;;;;;;6.35;3.47;;;;;;;13.95;75.76;100779.16;5066570;28;20067;-66
2023/03/17 09:42:03;;;;;;;6.15;3.30;;;;;;;13.95;75.08;100771.22;5047772;28;20028;-67
2023/03/17 09:44:33;;;;;;;6.60;3.80;;;;;;;14.11;74.34;100773.94;5062359;28;20036;-68
2023/03/17 09:47:05;;;;;;;6.05;3.55;;;;;;;14.28;73.94;100778.41;5050321;28;20020;-68
2023/03/17 09:49:43;;;;;;;5.47;3.65;;;;;;;14.43;72.80;100786.50;5061577;28;20055;-67
2023/03/17 09:52:17;;;;;;;9.80;4.20;;;;;;;14.63;71.65;100774.91;5034782;28;20035;-68
2023/03/17 09:54:45;;;;;;;9.30;4.07;;;;;;;14.78;72.15;100775.94;5048153;28;20813;-69
2023/03/17 09:57:21;;;;;;;15.40;4.13;;;;;;;14.94;71.85;100785.69;5031170;28;20500;-68
2023/03/17 10:00:04;;;;;;;18.63;4.05;;;;;;;15.19;70.61;100795.00;5050815;28;20111;-66
2023/03/17 10:02:31;;;;;;;10.13;5.65;;;;;;;15.28;67.87;100805.97;5069747;28;20070;-67
2023/03/17 10:04:57;;;;;;;18.90;5.38;;;;;;;15.28;70.04;100811.28;5051698;28;20060;-69
2023/03/17 10:07:38;;;;;;;10.02;4.00;;;;;;;15.30;67.67;100816.53;5037612;28;20041;-69
2023/03/17 10:10:13;;;;;;;12.02;3.85;;;;;;;15.68;65.71;100815.31;5032895;28;20029;-68
2023/03/17 10:12:50;;;;;;;10.52;3.88;;;;;;;15.95;66.05;100820.03;5048172;28;20055;-67
2023/03/17 10:15:26;;;;;;;10.90;3.90;;;;;;;16.02;65.55;100817.91;5049973;28;20580;-67
2023/03/17 10:17:52;;;;;;;12.40;4.43;;;;;;;15.71;64.74;100806.34;5035765;28;20040;-68
2023/03/17 10:20:24;;;;;;;9.63;4.00;;;;;;;15.56;66.33;100806.25;5052387;28;20029;-67
2023/03/17 10:22:54;;;;;;;7.20;3.88;;;;;;;15.60;67.36;100813.13;5051061;28;20181;-66
2023/03/17 10:25:27;;;;;;;7.43;4.32;;;;;;;15.63;66.46;100815.56;5069433;28;20032;-66
2023/03/17 10:28:01;;;;;;;9.70;4.20;;;;;;;15.65;67.06;100808.38;5049811;28;20480;-68
2023/03/17 10:30:29;;;;;;;9.57;4.18;;;;;;;15.64;67.95;100801.38;5067228;28;20526;-68
2023/03/17 10:32:58;;;;;;;8.93;4.47;;;;;;;15.96;67.36;100804.94;5063084;28;20671;-67
2023/03/17 10:35:24;;;;;;;;;;;;;;;15.97;66.21;100812.00;5068275;28;20040;-67
2023/03/17 10:37:49;;;;;;;10.80;4.28;;;;;;;16.21;66.16;100814.19;5051717;28;20272;-68
2023/03/17 10:40:27;;;;;;;13.43;4.78;;;;;;;16.21;64.63;100811.53;5053531;28;20028;-67
2023/03/17 10:43:09;;;;;;;10.77;4.30;;;;;;;16.20;64.10;100808.03;5068969;28;20472;-66
2023/03/17 10:45:39;;;;;;;10.43;4.13;;;;;;;16.25;64.68;100795.31;5067633;28;20036;-67
2023/03/17 10:48:08;;;;;;;8.98;4.40;;;;;;;16.04;65.20;100789.44;5068546;28;20020;-68
2023/03/17 10:50:36;;;;;;;9.27;4.47;;;;;;;15.93;67.45;100787.38;5068436;28;20121;-68
2023/03/17 10:53:26;;;;;;;8.13;4.15;;;;;;;15.97;66.74;100788.94;5050796;28;20028;-67
2023/03/17 10:55:54;;;;;;;9.68;4.57;;;;;;;15.94;68.00;100793.53;5068417;28;20493;-69
2023/03/17 10:58:37;;;;;;;9.70;3.92;;;;;;;16.19;66.47;100794.81;5048452;28;20028;-67
2023/03/17 11:01:35;;;;;;;5.90;3.78;;;;;;;16.38;66.22;100790.09;5048353;28;20017;-67
2023/03/17 11:04:05;;;;;;;7.47;3.78;;;;;;;16.36;66.65;100784.03;5050132;28;20036;-69
2023/03/17 11:06:36;;;;;;;8.90;4.20;;;;;;;16.38;65.05;100778.63;5064729;28;20068;-68
2023/03/17 11:09:08;;;;;;;11.07;3.78;;;;;;;16.51;64.88;100776.09;5050054;28;20021;-67
2023/03/17 11:11:41;;;;;;;10.25;4.20;;;;;;;16.48;65.50;100782.47;5049492;28;20507;-68
2023/03/17 11:14:12;;;;;;;7.30;4.15;;;;;;;16.56;64.69;100779.34;5047988;28;20075;-67
2023/03/17 11:16:44;;;;;;;12.73;4.40;;;;;;;16.55;65.25;100774.94;5068909;28;20032;-66
2023/03/17 11:19:13;;;;;;;9.50;4.32;;;;;;;16.39;65.38;100765.25;5050555;28;20021;-67
2023/03/17 11:21:51;;;;;;;8.65;4.43;;;;;;;16.13;66.60;100753.50;5050138;28;20028;-67
2023/03/17 11:24:20;;;;;;;8.80;4.10;;;;;;;16.07;69.81;100740.59;5033181;28;20077;-68
2023/03/17 11:26:48;;;;;;;10.60;4.70;;;;;;;16.14;69.07;100740.09;5046755;28;20032;-67